createdAt,value
2022-09-02T00:02:28.484Z,10.62
2022-09-02T00:05:01.481Z,10.56
2022-09-02T00:07:48.344Z,10.52
2022-09-02T00:10:21.441Z,10.50
2022-09-02T00:13:08.364Z,10.50
2022-09-02T00:15:41.458Z,10.47
2022-09-02T00:18:28.386Z,10.43
2022-09-02T00:21:02.433Z,10.38
2022-09-02T00:23:50.374Z,10.35
2022-09-02T00:26:24.732Z,10.31
2022-09-02T00:29:12.370Z,10.27
2022-09-02T00:31:52.489Z,10.21
2022-09-02T00:34:46.388Z,10.14
2022-09-02T00:37:40.378Z,10.08
2022-09-02T00:40:27.411Z,9.97
2022-09-02T00:43:07.389Z,9.87
2022-09-02T00:46:02.462Z,9.72
2022-09-02T00:49:45.409Z,9.54
2022-09-02T00:52:28.381Z,9.41
2022-09-02T00:55:21.405Z,9.38
2022-09-02T00:58:00.895Z,9.37
2022-09-02T01:00:51.484Z,9.37
2022-09-02T01:03:28.870Z,9.40
2022-09-02T01:06:22.392Z,9.42
2022-09-02T01:09:09.433Z,9.33
2022-09-02T01:12:03.378Z,9.30
2022-09-02T01:14:57.397Z,9.27
2022-09-02T01:17:52.386Z,9.25
2022-09-02T01:20:36.413Z,9.23
2022-09-02T01:23:33.780Z,9.20
2022-09-02T01:26:21.392Z,9.20
2022-09-02T01:28:54.473Z,9.19
2022-09-02T01:31:41.462Z,9.17
2022-09-02T01:34:21.419Z,9.12
2022-09-02T01:37:08.410Z,9.09
2022-09-02T01:39:48.392Z,9.05
2022-09-02T01:42:36.411Z,8.98
2022-09-02T01:45:10.795Z,8.92
2022-09-02T01:47:58.408Z,8.87
2022-09-02T01:50:31.690Z,8.80
2022-09-02T01:53:18.451Z,8.72
2022-09-02T01:55:59.413Z,8.68
2022-09-02T01:58:53.391Z,8.62
2022-09-02T02:01:42.519Z,8.56
2022-09-02T02:04:17.481Z,8.57
2022-09-02T02:07:04.426Z,8.63
2022-09-02T02:09:44.415Z,8.64
2022-09-02T02:12:38.425Z,8.61
2022-09-02T02:18:19.419Z,8.63
2022-09-02T02:21:00.429Z,8.61
2022-09-02T02:23:54.417Z,8.54
2022-09-02T02:26:42.444Z,8.51
2022-09-02T02:29:29.413Z,8.45
2022-09-02T02:32:03.361Z,8.38
2022-09-02T02:34:50.430Z,8.34
2022-09-02T02:37:25.616Z,8.34
2022-09-02T02:40:12.467Z,8.36
2022-09-02T02:42:45.878Z,8.36
2022-09-02T02:45:32.432Z,8.37
2022-09-02T02:48:26.429Z,8.40
2022-09-02T02:51:21.427Z,8.39
2022-09-02T02:54:09.442Z,8.34
2022-09-02T02:56:42.499Z,8.32
2022-09-02T02:59:29.446Z,8.28
2022-09-02T03:02:02.573Z,8.25
2022-09-02T03:04:49.484Z,8.19
2022-09-02T03:07:29.461Z,8.14
2022-09-02T03:10:21.502Z,8.10
2022-09-02T03:13:01.472Z,8.12
2022-09-02T03:15:49.505Z,8.11
2022-09-02T03:18:22.614Z,8.06
2022-09-02T03:21:14.456Z,8.00
2022-09-02T03:23:47.488Z,7.97
2022-09-02T03:26:35.471Z,7.90
2022-09-02T03:29:08.529Z,7.89
2022-09-02T03:31:55.477Z,7.88
2022-09-02T03:34:30.508Z,7.87
2022-09-02T03:37:17.477Z,7.86
2022-09-02T03:39:50.531Z,7.88
2022-09-02T03:42:37.475Z,7.93
2022-09-02T03:45:22.444Z,7.97
2022-09-02T03:48:16.451Z,7.99
2022-09-02T03:51:03.462Z,7.97
2022-09-02T03:53:43.470Z,7.97
2022-09-02T03:56:31.480Z,7.94
2022-09-02T03:59:11.474Z,7.90
2022-09-02T04:02:05.535Z,7.90
2022-09-02T04:04:59.478Z,7.79
2022-09-02T04:07:47.467Z,7.68
2022-09-02T04:10:22.076Z,7.62
2022-09-02T04:13:08.475Z,7.58
2022-09-02T04:15:48.248Z,7.53
2022-09-02T04:18:36.475Z,7.53
2022-09-02T04:21:16.464Z,7.53
2022-09-02T04:24:10.476Z,7.55
2022-09-02T04:27:00.694Z,7.59
2022-09-02T04:29:36.570Z,7.62
2022-09-02T04:32:23.489Z,7.68
2022-09-02T04:34:56.583Z,7.70
2022-09-02T04:37:43.477Z,7.73
2022-09-02T04:40:16.680Z,7.75
2022-09-02T04:43:03.499Z,7.82
2022-09-02T04:45:36.563Z,7.83
2022-09-02T04:48:23.475Z,7.86
2022-09-02T04:50:56.570Z,7.88
2022-09-02T04:53:43.485Z,7.88
2022-09-02T04:56:19.911Z,7.89
2022-09-02T04:59:06.463Z,7.93
2022-09-02T05:01:42.294Z,7.97
2022-09-02T05:04:30.485Z,8.03
2022-09-02T05:07:04.621Z,8.09
2022-09-02T05:09:51.514Z,8.16
2022-09-02T05:12:34.487Z,8.28
2022-09-02T05:15:28.515Z,8.43
2022-09-02T05:18:22.489Z,8.57
2022-09-02T05:21:13.497Z,8.72
2022-09-02T05:23:54.525Z,8.87
2022-09-02T05:26:42.481Z,9.03
2022-09-02T05:29:22.502Z,9.19
2022-09-02T05:32:16.494Z,9.34
2022-09-02T05:35:03.512Z,9.49
2022-09-02T05:37:36.687Z,9.64
2022-09-02T05:40:23.561Z,9.81
2022-09-02T05:42:56.585Z,9.97
2022-09-02T05:45:45.524Z,10.14
2022-09-02T05:48:57.512Z,10.32
2022-09-02T05:52:02.509Z,10.49
2022-09-02T05:54:49.516Z,10.69
2022-09-02T05:57:23.631Z,10.88
2022-09-02T06:00:17.748Z,11.09
2022-09-02T06:02:58.604Z,11.30
2022-09-02T06:05:47.511Z,11.56
2022-09-02T06:08:27.516Z,11.77
2022-09-02T06:11:24.506Z,11.95
2022-09-02T06:14:12.540Z,12.16
2022-09-02T06:16:47.666Z,12.33
2022-09-02T06:19:39.522Z,12.50
2022-09-02T06:22:12.651Z,12.67
2022-09-02T06:24:59.509Z,12.84
2022-09-02T06:27:33.602Z,12.98
2022-09-02T06:30:20.526Z,13.11
2022-09-02T06:32:54.170Z,13.25
2022-09-02T06:35:47.511Z,13.38
2022-09-02T06:38:21.640Z,13.51
2022-09-02T06:41:08.541Z,13.64
2022-09-02T06:43:42.702Z,13.75
2022-09-02T06:46:39.617Z,13.83
2022-09-02T06:49:26.555Z,13.90
2022-09-02T06:52:01.603Z,13.98
2022-09-02T06:54:48.547Z,14.09
2022-09-02T06:57:22.645Z,14.18
2022-09-02T07:00:19.549Z,14.20
2022-09-02T07:03:19.553Z,14.24
2022-09-02T07:06:16.574Z,14.29
2022-09-02T07:08:50.685Z,14.34
2022-09-02T07:11:37.540Z,14.43
2022-09-02T07:14:17.592Z,14.49
2022-09-02T07:17:11.649Z,14.55
2022-09-02T07:19:58.575Z,14.61
2022-09-02T07:22:34.619Z,14.63
2022-09-02T07:25:22.582Z,14.63
2022-09-02T07:27:56.378Z,14.65
2022-09-02T07:30:43.701Z,14.69
2022-09-02T07:33:20.970Z,14.75
2022-09-02T07:36:12.507Z,14.78
2022-09-02T07:38:54.611Z,14.82
2022-09-02T07:41:49.551Z,14.84
2022-09-02T07:44:43.574Z,14.89
2022-09-02T07:47:37.646Z,14.95
2022-09-02T07:50:25.571Z,14.95
2022-09-02T07:52:59.659Z,14.97
2022-09-02T07:55:47.561Z,15.00
2022-09-02T07:58:23.743Z,15.03
2022-09-02T08:01:11.699Z,15.04
2022-09-02T08:03:47.676Z,15.10
2022-09-02T08:06:35.582Z,15.10
2022-09-02T08:09:14.637Z,15.12
2022-09-02T08:12:01.600Z,15.14
2022-09-02T08:14:41.568Z,15.20
2022-09-02T08:17:35.598Z,15.26
2022-09-02T08:20:23.602Z,15.34
2022-09-02T08:23:05.852Z,15.40
2022-09-02T08:25:58.581Z,15.39
2022-09-02T08:28:35.293Z,15.40
2022-09-02T08:31:21.684Z,15.42
2022-09-02T08:33:54.741Z,15.52
2022-09-02T08:36:41.597Z,15.58
2022-09-02T08:39:20.768Z,15.64
2022-09-02T08:42:21.572Z,15.72
2022-09-02T08:44:56.681Z,15.78
2022-09-02T08:47:46.590Z,15.89
2022-09-02T08:50:31.626Z,15.96
2022-09-02T08:53:36.611Z,16.02
2022-09-02T08:56:19.618Z,16.06
2022-09-02T08:59:09.611Z,16.08
2022-09-02T09:02:26.667Z,16.08
2022-09-02T09:05:31.632Z,16.05
2022-09-02T09:08:38.663Z,16.05
2022-09-02T09:11:34.622Z,16.10
2022-09-02T09:14:29.632Z,16.09
2022-09-02T09:17:38.619Z,16.07
2022-09-02T09:20:29.620Z,16.02
2022-09-02T09:23:11.638Z,15.99
2022-09-02T09:26:12.632Z,16.00
2022-09-02T09:29:02.629Z,16.02
2022-09-02T09:31:38.813Z,16.05
2022-09-02T09:34:25.621Z,16.10
2022-09-02T09:37:07.635Z,16.19
2022-09-02T09:39:54.622Z,16.23
2022-09-02T09:42:49.576Z,16.22
2022-09-02T09:45:42.679Z,16.22
2022-09-02T09:48:22.653Z,16.22
2022-09-02T09:51:16.658Z,16.25
2022-09-02T09:54:29.613Z,16.26
2022-09-02T09:57:25.638Z,16.26
2022-09-02T10:00:17.709Z,16.32
2022-09-02T10:03:13.654Z,16.34
2022-09-02T10:05:46.723Z,16.35
2022-09-02T10:08:34.646Z,16.37
2022-09-02T10:11:12.752Z,16.39
2022-09-02T10:14:12.654Z,16.46
2022-09-02T10:17:05.650Z,16.53
2022-09-02T10:20:21.647Z,16.63
2022-09-02T10:22:59.977Z,16.74
2022-09-02T10:26:09.635Z,16.76
2022-09-02T10:29:15.671Z,16.75
2022-09-02T10:32:05.657Z,16.66
2022-09-02T10:34:54.651Z,16.63
2022-09-02T10:38:06.749Z,16.62
2022-09-02T10:41:01.674Z,16.61
2022-09-02T10:44:10.659Z,16.58
2022-09-02T10:47:13.679Z,16.53
2022-09-02T10:50:41.666Z,16.46
2022-09-02T10:53:39.788Z,16.37
2022-09-02T10:56:33.673Z,16.28
2022-09-02T10:59:28.743Z,16.22
2022-09-02T11:02:34.696Z,16.19
2022-09-02T11:05:20.803Z,16.17
2022-09-02T11:08:31.395Z,16.14
2022-09-02T11:11:17.669Z,16.11
2022-09-02T11:14:10.776Z,16.07
2022-09-02T11:17:23.693Z,16.05
2022-09-02T11:20:09.778Z,16.03
2022-09-02T11:23:12.669Z,16.04
2022-09-02T11:25:56.805Z,16.04
2022-09-02T11:28:50.683Z,16.03
2022-09-02T11:31:39.319Z,16.02
2022-09-02T11:34:41.724Z,15.99
2022-09-02T11:37:56.692Z,16.00
2022-09-02T11:44:00.760Z,16.07
2022-09-02T11:47:03.748Z,16.12
2022-09-02T11:50:03.702Z,16.16
2022-09-02T11:53:31.721Z,16.20
2022-09-02T11:56:26.697Z,16.24
2022-09-02T11:58:59.791Z,16.27
2022-09-02T12:02:12.705Z,16.28
2022-09-02T12:05:00.094Z,16.29
2022-09-02T12:07:56.687Z,16.28
2022-09-02T12:10:54.712Z,16.30
2022-09-02T12:13:55.721Z,16.32
2022-09-02T12:16:55.706Z,16.37
2022-09-02T12:19:46.713Z,16.40
2022-09-02T12:22:31.745Z,16.41
2022-09-02T12:25:40.731Z,16.43
2022-09-02T12:28:32.715Z,16.43
2022-09-02T12:31:15.837Z,16.44
2022-09-02T12:34:02.717Z,16.47
2022-09-02T12:36:51.738Z,16.45
2022-09-02T12:39:45.704Z,16.44
2022-09-02T12:42:39.718Z,16.44
2022-09-02T12:45:29.407Z,16.44
2022-09-02T12:48:38.138Z,16.43
2022-09-02T12:52:08.730Z,16.43
2022-09-02T12:54:56.741Z,16.44
2022-09-02T12:57:45.940Z,16.44
2022-09-02T13:00:54.767Z,16.45
2022-09-02T13:04:04.751Z,16.43
2022-09-02T13:07:44.790Z,16.41
2022-09-02T13:10:41.740Z,16.42
2022-09-02T13:13:21.876Z,16.43
2022-09-02T13:16:20.777Z,16.42
2022-09-02T13:19:38.754Z,16.42
2022-09-02T13:23:01.754Z,16.45
2022-09-02T13:26:45.509Z,16.45
2022-09-02T13:30:00.758Z,16.45
2022-09-02T13:32:37.858Z,16.45
2022-09-02T13:35:30.751Z,16.47
2022-09-02T13:38:06.969Z,16.48
2022-09-02T13:40:53.773Z,16.50
2022-09-02T13:43:36.765Z,16.52
2022-09-02T13:46:30.775Z,16.53
2022-09-02T13:49:37.330Z,16.55
2022-09-02T13:53:27.713Z,16.53
2022-09-02T13:55:48.779Z,16.50
2022-09-02T13:58:50.867Z,16.48
2022-09-02T14:01:40.017Z,16.49
2022-09-02T14:04:24.767Z,16.48
2022-09-02T14:07:15.760Z,16.47
2022-09-02T14:09:50.867Z,16.48
2022-09-02T14:12:40.779Z,16.46
2022-09-02T14:15:16.943Z,16.42
2022-09-02T14:18:35.783Z,16.39
2022-09-02T14:21:32.776Z,16.38
2022-09-02T14:24:28.780Z,16.35
2022-09-02T14:27:28.771Z,16.33
2022-09-02T14:30:09.252Z,16.29
2022-09-02T14:32:55.782Z,16.29
2022-09-02T14:35:30.082Z,16.27
2022-09-02T14:38:29.790Z,16.28
2022-09-02T14:41:12.946Z,16.26
2022-09-02T14:44:14.791Z,16.23
2022-09-02T14:47:02.776Z,16.22
2022-09-02T14:50:01.795Z,16.20
2022-09-02T14:52:54.797Z,16.20
2022-09-02T14:55:53.789Z,16.19
2022-09-02T14:58:48.266Z,16.18
2022-09-02T15:01:34.860Z,16.17
2022-09-02T15:04:07.927Z,16.17
2022-09-02T15:06:55.789Z,16.16
2022-09-02T15:09:28.918Z,16.16
2022-09-02T15:12:15.797Z,16.14
2022-09-02T15:14:53.922Z,16.15
2022-09-02T15:17:40.803Z,16.14
2022-09-02T15:20:21.838Z,16.14
2022-09-02T15:23:15.812Z,16.13
2022-09-02T15:26:09.799Z,16.11
2022-09-02T15:29:03.818Z,16.10
2022-09-02T15:31:50.818Z,16.10
2022-09-02T15:34:23.916Z,16.07
2022-09-02T15:37:13.087Z,16.06
2022-09-02T15:39:46.979Z,16.05
2022-09-02T15:42:33.809Z,16.03
2022-09-02T15:45:09.054Z,16.04
2022-09-02T15:48:02.816Z,16.02
2022-09-02T15:50:49.907Z,16.02
2022-09-02T15:53:34.838Z,16.01
2022-09-02T15:56:26.828Z,16.00
2022-09-02T15:59:02.976Z,15.99
2022-09-02T16:01:52.882Z,15.98
2022-09-02T16:04:27.407Z,15.97
2022-09-02T16:07:16.896Z,15.95
2022-09-02T16:10:01.344Z,15.92
2022-09-02T16:12:56.856Z,15.90
2022-09-02T16:15:43.844Z,15.89
2022-09-02T16:18:24.834Z,15.88
2022-09-02T16:21:13.837Z,15.85
2022-09-02T16:23:46.927Z,15.82
2022-09-02T16:26:41.850Z,15.80
2022-09-02T16:29:28.167Z,15.79
2022-09-02T16:32:27.324Z,15.77
2022-09-02T16:35:14.847Z,15.77
2022-09-02T16:37:54.824Z,15.75
2022-09-02T16:40:48.853Z,15.74
2022-09-02T16:43:38.852Z,15.74
2022-09-02T16:46:12.039Z,15.72
2022-09-02T16:48:58.863Z,15.72
2022-09-02T16:51:33.525Z,15.71
2022-09-02T16:54:21.320Z,15.69
2022-09-02T16:57:03.947Z,15.67
2022-09-02T16:59:50.882Z,15.62
2022-09-02T17:02:24.029Z,15.59
2022-09-02T17:05:10.889Z,15.56
2022-09-02T17:07:45.374Z,15.55
2022-09-02T17:10:31.855Z,15.55
2022-09-02T17:13:04.979Z,15.54
2022-09-02T17:15:51.857Z,15.52
2022-09-02T17:18:24.952Z,15.51
2022-09-02T17:21:29.887Z,15.51
2022-09-02T17:24:03.965Z,15.49
2022-09-02T17:26:53.866Z,15.47
2022-09-02T17:29:48.452Z,15.45
2022-09-02T17:32:35.871Z,15.43
2022-09-02T17:35:15.871Z,15.41
2022-09-02T17:38:09.888Z,15.39
2022-09-02T17:41:21.877Z,15.36
2022-09-02T17:44:15.887Z,15.33
2022-09-02T17:47:10.888Z,15.30
2022-09-02T17:50:04.894Z,15.27
2022-09-02T17:52:58.890Z,15.27
2022-09-02T17:55:45.919Z,15.24
2022-09-02T17:58:33.909Z,15.23
2022-09-02T18:01:31.017Z,15.23
2022-09-02T18:05:07.915Z,15.20
2022-09-02T18:08:18.974Z,15.15
2022-09-02T18:11:09.906Z,15.12
2022-09-02T18:14:20.890Z,15.09
2022-09-02T18:17:27.899Z,15.08
2022-09-02T18:20:24.890Z,15.07
2022-09-02T18:23:29.905Z,15.06
2022-09-02T18:26:25.926Z,15.04
2022-09-02T18:29:40.944Z,15.03
2022-09-02T18:33:05.914Z,15.03
2022-09-02T18:35:55.706Z,15.01
2022-09-02T18:38:59.918Z,15.00
2022-09-02T18:42:18.056Z,14.99
2022-09-02T18:45:16.290Z,14.98
2022-09-02T18:48:07.952Z,14.97
2022-09-02T18:51:07.924Z,14.97
2022-09-02T18:54:17.919Z,14.95
2022-09-02T18:57:07.922Z,14.94
2022-09-02T19:00:01.099Z,14.94
2022-09-02T19:03:00.916Z,14.93
2022-09-02T19:05:37.066Z,14.91
2022-09-02T19:08:41.927Z,14.90
2022-09-02T19:11:29.941Z,14.89
2022-09-02T19:14:42.955Z,14.88
2022-09-02T19:17:29.941Z,14.86
2022-09-02T19:20:09.930Z,14.86
2022-09-02T19:23:06.939Z,14.86
2022-09-02T19:25:53.921Z,14.85
2022-09-02T19:28:29.090Z,14.85
2022-09-02T19:31:20.984Z,14.83
2022-09-02T19:33:57.108Z,14.83
2022-09-02T19:36:46.938Z,14.84
2022-09-02T19:39:27.015Z,14.84
2022-09-02T19:42:13.940Z,14.82
2022-09-02T19:44:54.945Z,14.83
2022-09-02T19:50:55.947Z,14.83
2022-09-02T19:53:37.963Z,14.83
2022-09-02T19:56:31.960Z,14.81
2022-09-02T19:59:25.947Z,14.80
2022-09-02T20:02:13.020Z,14.80
2022-09-02T20:04:52.951Z,14.79
2022-09-02T20:07:39.961Z,14.79
2022-09-02T20:10:15.055Z,14.77
2022-09-02T20:13:06.997Z,14.76
2022-09-02T20:15:44.038Z,14.75
2022-09-02T20:18:32.969Z,14.75
2022-09-02T20:21:07.069Z,14.73
2022-09-02T20:23:54.002Z,14.74
2022-09-02T20:27:11.045Z,14.71
2022-09-02T20:30:21.982Z,14.67
2022-09-02T20:33:14.021Z,14.64
2022-09-02T20:36:24.959Z,14.63
2022-09-02T20:39:31.027Z,14.62
2022-09-02T20:42:49.975Z,14.60
2022-09-02T20:45:51.997Z,14.57
2022-09-02T20:48:55.977Z,14.56
2022-09-02T20:51:48.966Z,14.54
2022-09-02T20:54:46.215Z,14.52
2022-09-02T20:57:46.954Z,14.50
2022-09-02T21:00:24.098Z,14.48
2022-09-02T21:03:17.978Z,14.47
2022-09-02T21:06:04.993Z,14.43
2022-09-02T21:09:06.003Z,14.39
2022-09-02T21:11:49.920Z,14.35
2022-09-02T21:14:52.979Z,14.30
2022-09-02T21:17:52.108Z,14.26
2022-09-02T21:20:53.005Z,14.24
2022-09-02T21:23:29.264Z,14.22
2022-09-02T21:27:09.001Z,14.19
2022-09-02T21:29:57.919Z,14.16
2022-09-02T21:32:53.016Z,14.13
2022-09-02T21:35:39.989Z,14.09
2022-09-02T21:38:35.028Z,14.07
2022-09-02T21:41:34.023Z,14.09
2022-09-02T21:44:43.010Z,14.08
2022-09-02T21:47:56.020Z,14.08
2022-09-02T21:51:16.009Z,14.08
2022-09-02T21:54:05.023Z,14.10
2022-09-02T21:57:38.023Z,14.11
2022-09-02T22:00:32.074Z,14.11
2022-09-02T22:03:37.011Z,14.12
2022-09-02T22:06:19.082Z,14.12
2022-09-02T22:09:21.020Z,14.12
2022-09-02T22:12:03.654Z,14.12
2022-09-02T22:14:59.034Z,14.13
2022-09-02T22:18:11.024Z,14.13
2022-09-02T22:21:10.008Z,14.14
2022-09-02T22:24:01.043Z,14.15
2022-09-02T22:27:10.021Z,14.14
2022-09-02T22:30:21.045Z,14.15
2022-09-02T22:33:18.039Z,14.16
2022-09-02T22:36:29.125Z,14.14
2022-09-02T22:39:17.030Z,14.12
2022-09-02T22:41:58.880Z,14.11
2022-09-02T22:45:05.046Z,14.10
2022-09-02T22:48:08.033Z,14.08
2022-09-02T22:51:28.039Z,14.07
2022-09-02T22:54:22.042Z,14.07
2022-09-02T22:57:37.051Z,14.05
2022-09-02T23:00:16.123Z,14.06
2022-09-02T23:03:21.091Z,14.05
2022-09-02T23:06:04.050Z,14.05
2022-09-02T23:08:58.043Z,14.05
2022-09-02T23:11:54.054Z,14.03
2022-09-02T23:14:48.137Z,14.03
2022-09-02T23:17:41.045Z,14.04
2022-09-02T23:20:25.425Z,14.03
2022-09-02T23:23:33.062Z,14.02
2022-09-02T23:26:32.055Z,14.01
2022-09-02T23:29:33.067Z,14.00
2022-09-02T23:33:04.122Z,14.00
2022-09-02T23:36:00.064Z,13.98
2022-09-02T23:38:53.067Z,13.98
2022-09-02T23:41:48.082Z,13.98
2022-09-02T23:44:36.080Z,13.97
2022-09-02T23:47:24.149Z,13.97
2022-09-02T23:50:38.073Z,13.97
2022-09-02T23:54:04.067Z,13.97
2022-09-02T23:57:34.084Z,13.96
